Peney — HOGK — position and weather

sailwx.info

Track history (hours):
 
Tides and Currents Weather Stations Pressure Air Temp Water Temp Dewpoint Dewpoint Depression Visibility Wind Speed Wind Dir Waves Ship Positions

Peney

Last reported at 2017-May-17 18:10 UTC. Time now 2017-May-24 02:21 UTC.
Position N 35°16' W 012°20'.

Length 225 m; draft 11.7 m.

Type: Other ship. MMSI: 374921000.

Date/timePositionNaut miles runAvg speedWind from/ knotsBaromVisibWave heightAir tempDewpointWater temp
2017-May-17 18:10N 35°16' W 012°20'211.1
2017-May-17 18:00N 35°14' W 012°20'2211.2
2017-May-17 16:01N 34°53' W 012°28'211.2
2017-May-17 15:52N 34°51' W 012°29'411.2
2017-May-17 15:30N 34°47' W 012°30'811.1
2017-May-17 14:46N 34°40' W 012°33'611.5
2017-May-17 14:14N 34°34' W 012°35'1711.4
2017-May-17 12:47N 34°18' W 012°41'6812.0
2017-May-17 07:07N 33°13' W 013°05'112.1
2017-May-17 07:01N 33°12' W 013°06'2012.2
2017-May-17 05:24N 32°53' W 013°12'6412.2
2017-May-17 00:10N 31°52' W 013°35'211.7
2017-May-17 00:00N 31°50' W 013°35'3311.4
2017-May-16 21:05N 31°18' W 013°47'111.0
2017-May-16 21:00N 31°17' W 013°47'911.4
2017-May-16 20:12N 31°09' W 013°50'211.7
2017-May-16 20:00N 31°06' W 013°51'611.7
2017-May-16 19:30N 31°01' W 013°53'1511.9
2017-May-16 18:17N 30°47' W 013°58'312.2
2017-May-16 18:00N 30°44' W 013°59'612.2
2017-May-16 17:29N 30°38' W 014°01'2712.7
2017-May-16 15:23N 30°12' W 014°10'3612.7
2017-May-16 12:32N 29°37' W 014°22'012.8
2017-May-16 12:30N 29°37' W 014°22'612.8
2017-May-16 12:00N 29°31' W 014°25'612.6
2017-May-16 11:30N 29°25' W 014°27'612.5
2017-May-16 11:00N 29°19' W 014°29'612.5
2017-May-16 10:30N 29°13' W 014°31'812.2
2017-May-16 09:51N 29°05' W 014°33'512.2
2017-May-16 09:28N 29°01' W 014°35'612.1
2017-May-16 09:00N 28°56' W 014°37'612.1
2017-May-16 08:30N 28°50' W 014°39'712.0
2017-May-16 07:54N 28°43' W 014°41'512.1
2017-May-16 07:30N 28°38' W 014°43'1712.2
2017-May-16 06:07N 28°22' W 014°49'112.3
2017-May-16 06:00N 28°21' W 014°49'612.4
2017-May-16 05:31N 28°15' W 014°52'612.3
2017-May-16 05:01N 28°09' W 014°54'612.5
2017-May-16 04:31N 28°03' W 014°56'612.3
2017-May-16 04:01N 27°58' W 014°59'612.0
2017-May-16 03:30N 27°52' W 015°01'612.0
2017-May-16 03:00N 27°46' W 015°04'3511.3
2017-May-15 23:54N 27°14' W 015°18'6311.6
2017-May-15 18:26N 26°15' W 015°43'  
Track history (hours):
 
Tides and Currents Weather Stations Pressure Air Temp Water Temp Dewpoint Dewpoint Depression Visibility Wind Speed Wind Dir Waves Ship Positions

Peney

Last reported at 2017-May-17 18:10 UTC. Time now 2017-May-24 02:21 UTC.
Position N 35°16' W 012°20'.

Length 225 m; draft 11.7 m.

Type: Other ship. MMSI: 374921000.

Date/timePositionNaut miles runAvg speedWind from/ knotsBaromVisibWave heightAir tempDewpointWater temp
2017-May-17 18:10N 35°16' W 012°20'211.1
2017-May-17 18:00N 35°14' W 012°20'2211.2
2017-May-17 16:01N 34°53' W 012°28'211.2
2017-May-17 15:52N 34°51' W 012°29'411.2
2017-May-17 15:30N 34°47' W 012°30'811.1
2017-May-17 14:46N 34°40' W 012°33'611.5
2017-May-17 14:14N 34°34' W 012°35'1711.4
2017-May-17 12:47N 34°18' W 012°41'6812.0
2017-May-17 07:07N 33°13' W 013°05'112.1
2017-May-17 07:01N 33°12' W 013°06'2012.2
2017-May-17 05:24N 32°53' W 013°12'6412.2
2017-May-17 00:10N 31°52' W 013°35'211.7
2017-May-17 00:00N 31°50' W 013°35'3311.4
2017-May-16 21:05N 31°18' W 013°47'111.0
2017-May-16 21:00N 31°17' W 013°47'911.4
2017-May-16 20:12N 31°09' W 013°50'211.7
2017-May-16 20:00N 31°06' W 013°51'611.7
2017-May-16 19:30N 31°01' W 013°53'1511.9
2017-May-16 18:17N 30°47' W 013°58'312.2
2017-May-16 18:00N 30°44' W 013°59'612.2
2017-May-16 17:29N 30°38' W 014°01'2712.7
2017-May-16 15:23N 30°12' W 014°10'3612.7
2017-May-16 12:32N 29°37' W 014°22'012.8
2017-May-16 12:30N 29°37' W 014°22'612.8
2017-May-16 12:00N 29°31' W 014°25'612.6
2017-May-16 11:30N 29°25' W 014°27'612.5
2017-May-16 11:00N 29°19' W 014°29'612.5
2017-May-16 10:30N 29°13' W 014°31'812.2
2017-May-16 09:51N 29°05' W 014°33'512.2
2017-May-16 09:28N 29°01' W 014°35'612.1
2017-May-16 09:00N 28°56' W 014°37'612.1
2017-May-16 08:30N 28°50' W 014°39'712.0
2017-May-16 07:54N 28°43' W 014°41'512.1
2017-May-16 07:30N 28°38' W 014°43'1712.2
2017-May-16 06:07N 28°22' W 014°49'112.3
2017-May-16 06:00N 28°21' W 014°49'612.4
2017-May-16 05:31N 28°15' W 014°52'612.3
2017-May-16 05:01N 28°09' W 014°54'612.5
2017-May-16 04:31N 28°03' W 014°56'612.3
2017-May-16 04:01N 27°58' W 014°59'612.0
2017-May-16 03:30N 27°52' W 015°01'612.0
2017-May-16 03:00N 27°46' W 015°04'3511.3
2017-May-15 23:54N 27°14' W 015°18'6311.6
2017-May-15 18:26N 26°15' W 015°43'  

Dump ship's entire track history